createdAt,value
2023-05-06T00:02:09.799Z,7.70
2023-05-06T00:04:36.581Z,6.30
2023-05-06T00:07:03.258Z,8.30
2023-05-06T00:09:29.857Z,8.60
2023-05-06T00:11:56.474Z,6.80
2023-05-06T00:14:23.663Z,6.70
2023-05-06T00:16:53.266Z,8.10
2023-05-06T00:19:20.233Z,6.00
2023-05-06T00:21:46.971Z,10.20
2023-05-06T00:24:13.750Z,7.00
2023-05-06T00:26:40.196Z,7.00
2023-05-06T00:29:06.895Z,7.40
2023-05-06T00:31:36.100Z,8.30
2023-05-06T00:34:02.803Z,8.40
2023-05-06T00:36:29.511Z,8.40
2023-05-06T00:38:56.989Z,9.10
2023-05-06T00:41:24.082Z,7.20
2023-05-06T00:43:50.707Z,7.20
2023-05-06T00:46:18.038Z,7.70
2023-05-06T00:48:44.777Z,6.70
2023-05-06T00:51:14.987Z,7.80
2023-05-06T00:53:43.920Z,6.30
2023-05-06T00:56:11.009Z,8.40
2023-05-06T00:58:40.958Z,7.70
2023-05-06T01:01:07.891Z,8.50
2023-05-06T01:03:34.612Z,7.40
2023-05-06T01:06:07.632Z,6.60
2023-05-06T01:08:43.036Z,7.60
2023-05-06T01:11:15.938Z,12.80
2023-05-06T01:13:51.968Z,8.00
2023-05-06T01:16:22.955Z,6.70
2023-05-06T01:18:53.156Z,7.70
2023-05-06T01:21:21.527Z,6.40
2023-05-06T01:23:57.339Z,11.50
2023-05-06T01:26:24.777Z,7.90
2023-05-06T01:28:51.503Z,7.00
2023-05-06T01:31:47.610Z,8.00
2023-05-06T01:34:20.463Z,7.90
2023-05-06T01:37:06.576Z,6.50
2023-05-06T01:39:37.330Z,6.50
2023-05-06T01:42:09.064Z,8.90
2023-05-06T01:44:38.910Z,7.10
2023-05-06T01:47:08.315Z,8.50
2023-05-06T01:49:35.636Z,6.30
2023-05-06T01:52:02.421Z,6.40
2023-05-06T01:54:29.022Z,6.40
2023-05-06T01:56:55.767Z,7.40
2023-05-06T01:59:22.275Z,5.90
2023-05-06T02:01:48.959Z,7.80
2023-05-06T02:04:16.567Z,8.80
2023-05-06T02:06:43.169Z,6.40
2023-05-06T02:09:11.244Z,6.10
2023-05-06T02:11:42.316Z,5.00
2023-05-06T02:14:08.926Z,6.50
2023-05-06T02:16:36.106Z,7.70
2023-05-06T02:19:02.986Z,7.80
2023-05-06T02:21:29.664Z,6.00
2023-05-06T02:23:56.405Z,7.50
2023-05-06T02:26:23.289Z,6.80
2023-05-06T02:28:49.922Z,6.80
2023-05-06T02:31:16.878Z,9.40
2023-05-06T02:33:45.162Z,8.10
2023-05-06T02:36:11.642Z,6.20
2023-05-06T02:38:38.247Z,6.00
2023-05-06T02:41:04.830Z,6.00
2023-05-06T02:43:31.325Z,6.20
2023-05-06T02:45:58.404Z,9.40
2023-05-06T02:48:25.911Z,6.90
2023-05-06T02:50:52.483Z,5.70
2023-05-06T02:53:19.007Z,5.90
2023-05-06T02:55:46.095Z,5.60
2023-05-06T02:58:12.801Z,6.10
2023-05-06T03:00:39.314Z,5.50
2023-05-06T03:03:06.136Z,4.70
2023-05-06T03:05:32.749Z,5.90
2023-05-06T03:07:59.884Z,6.90
2023-05-06T03:10:26.931Z,6.10
2023-05-06T03:12:54.562Z,6.80
2023-05-06T03:15:21.203Z,6.80
2023-05-06T03:17:48.027Z,6.50
2023-05-06T03:20:15.639Z,6.80
2023-05-06T03:22:45.810Z,7.80
2023-05-06T03:25:12.721Z,8.20
2023-05-06T03:27:39.945Z,5.50
2023-05-06T03:30:12.083Z,5.10
2023-05-06T03:32:38.887Z,5.80
2023-05-06T03:35:07.741Z,4.90
2023-05-06T03:37:35.212Z,6.70
2023-05-06T03:40:04.016Z,6.40
2023-05-06T03:42:31.504Z,6.60
2023-05-06T03:44:58.402Z,5.50
2023-05-06T03:47:26.030Z,6.40
2023-05-06T03:49:52.590Z,6.80
2023-05-06T03:52:19.343Z,6.70
2023-05-06T03:54:46.178Z,6.30
2023-05-06T03:57:12.995Z,6.30
2023-05-06T03:59:39.731Z,7.40
2023-05-06T04:02:06.839Z,6.20
2023-05-06T04:04:35.229Z,5.70
2023-05-06T04:07:03.181Z,6.10
2023-05-06T04:09:31.794Z,5.80
2023-05-06T04:11:58.922Z,6.00
2023-05-06T04:14:25.752Z,5.60
2023-05-06T04:16:52.635Z,5.30
2023-05-06T04:19:21.094Z,5.30
2023-05-06T04:21:47.761Z,6.00
2023-05-06T04:24:18.477Z,7.00
2023-05-06T04:26:45.983Z,5.80
2023-05-06T04:29:13.261Z,5.20
2023-05-06T04:31:45.800Z,5.20
2023-05-06T04:34:12.869Z,6.70
2023-05-06T04:36:40.758Z,6.50
2023-05-06T04:39:26.758Z,6.20
2023-05-06T04:41:53.800Z,5.20
2023-05-06T04:44:26.523Z,3.70
2023-05-06T04:46:53.660Z,5.60
2023-05-06T04:49:20.280Z,6.90
2023-05-06T04:51:46.904Z,8.30
2023-05-06T04:54:16.605Z,7.80
2023-05-06T04:56:43.610Z,4.40
2023-05-06T04:59:10.809Z,6.10
2023-05-06T05:01:37.900Z,6.50
2023-05-06T05:04:04.608Z,6.60
2023-05-06T05:06:31.441Z,5.30
2023-05-06T05:08:59.612Z,7.80
2023-05-06T05:11:26.870Z,6.70
2023-05-06T05:13:56.910Z,6.40
2023-05-06T05:16:24.684Z,5.30
2023-05-06T05:18:52.537Z,5.90
2023-05-06T05:21:21.507Z,7.60
2023-05-06T05:23:48.212Z,5.40
2023-05-06T05:26:14.977Z,6.00
2023-05-06T05:28:43.606Z,7.90
2023-05-06T05:31:10.819Z,5.20
2023-05-06T05:33:38.399Z,7.10
2023-05-06T05:36:07.680Z,5.00
2023-05-06T05:38:35.101Z,6.00
2023-05-06T05:41:01.931Z,6.90
2023-05-06T05:43:28.720Z,6.00
2023-05-06T05:45:56.006Z,7.20
2023-05-06T05:48:22.745Z,5.10
2023-05-06T05:50:50.241Z,8.80
2023-05-06T05:53:17.072Z,5.60
2023-05-06T05:55:43.860Z,6.00
2023-05-06T05:58:11.170Z,6.40
2023-05-06T06:00:38.122Z,5.30
2023-05-06T06:03:07.301Z,5.20
2023-05-06T06:05:34.129Z,4.80
2023-05-06T06:08:03.511Z,7.70
2023-05-06T06:10:30.828Z,5.80
2023-05-06T06:12:59.031Z,7.60
2023-05-06T06:15:26.638Z,6.20
2023-05-06T06:17:54.369Z,6.70
2023-05-06T06:20:21.407Z,6.80
2023-05-06T06:22:47.944Z,5.10
2023-05-06T06:25:14.796Z,5.60
2023-05-06T06:27:41.527Z,7.10
2023-05-06T06:30:08.964Z,5.80
2023-05-06T06:32:35.485Z,4.30
2023-05-06T06:35:02.281Z,5.10
2023-05-06T06:37:29.007Z,4.70
2023-05-06T06:39:55.539Z,5.00
2023-05-06T06:42:22.093Z,6.80
2023-05-06T06:44:57.980Z,6.10
2023-05-06T06:47:24.622Z,7.10
2023-05-06T06:49:51.116Z,6.70
2023-05-06T06:52:17.679Z,7.10
2023-05-06T06:54:44.338Z,5.30
2023-05-06T06:57:11.091Z,6.10
2023-05-06T06:59:37.687Z,5.10
2023-05-06T07:02:04.277Z,5.00
2023-05-06T07:04:30.795Z,6.20
2023-05-06T07:06:57.469Z,5.10
2023-05-06T07:09:24.055Z,4.30
2023-05-06T07:11:51.161Z,4.60
2023-05-06T07:14:17.734Z,7.50
2023-05-06T07:16:46.387Z,4.60
2023-05-06T07:19:13.809Z,4.30
2023-05-06T07:21:40.944Z,6.70
2023-05-06T07:24:07.798Z,5.70
2023-05-06T07:26:37.727Z,6.90
2023-05-06T07:29:04.338Z,6.10
2023-05-06T07:31:34.326Z,5.70
2023-05-06T07:34:01.168Z,9.10
2023-05-06T07:36:28.321Z,8.20
2023-05-06T07:38:55.009Z,6.10
2023-05-06T07:41:21.480Z,6.50
2023-05-06T07:43:48.091Z,3.60
2023-05-06T07:46:15.217Z,5.00
2023-05-06T07:48:42.052Z,5.30
2023-05-06T07:51:08.784Z,5.00
2023-05-06T07:53:35.448Z,8.10
2023-05-06T07:56:03.321Z,5.20
2023-05-06T07:58:31.150Z,7.20
2023-05-06T08:00:59.362Z,6.50
2023-05-06T08:03:26.350Z,5.30
2023-05-06T08:05:54.686Z,4.90
2023-05-06T08:08:22.657Z,5.50
2023-05-06T08:10:49.255Z,5.50
2023-05-06T08:13:16.002Z,5.70
2023-05-06T08:15:42.791Z,5.30
2023-05-06T08:18:20.655Z,6.60
2023-05-06T08:20:49.390Z,4.90
2023-05-06T08:23:16.156Z,5.20
2023-05-06T08:25:42.793Z,8.40
2023-05-06T08:28:09.862Z,5.10
2023-05-06T08:30:36.370Z,4.20
2023-05-06T08:33:03.219Z,7.20
2023-05-06T08:35:30.163Z,4.40
2023-05-06T08:37:56.642Z,4.80
2023-05-06T08:40:26.312Z,4.50
2023-05-06T08:42:55.583Z,4.70
2023-05-06T08:45:22.871Z,3.80
2023-05-06T08:47:49.569Z,6.20
2023-05-06T08:50:16.461Z,7.60
2023-05-06T08:52:43.304Z,5.90
2023-05-06T08:55:10.782Z,6.20
2023-05-06T08:57:38.039Z,6.60
2023-05-06T09:00:05.218Z,5.80
2023-05-06T09:02:32.091Z,7.80
2023-05-06T09:04:59.226Z,6.50
2023-05-06T09:07:26.264Z,3.60
2023-05-06T09:09:52.982Z,5.50
2023-05-06T09:12:19.602Z,9.90
2023-05-06T09:14:49.378Z,8.50
2023-05-06T09:17:23.643Z,11.30
2023-05-06T09:19:52.161Z,9.50
2023-05-06T09:22:23.037Z,10.40
2023-05-06T09:24:56.014Z,7.90
2023-05-06T09:27:30.618Z,10.70
2023-05-06T09:30:03.565Z,13.80
2023-05-06T09:32:31.074Z,11.20
2023-05-06T09:34:58.038Z,12.80
2023-05-06T09:37:27.876Z,8.80
2023-05-06T09:39:56.353Z,13.40
2023-05-06T09:42:28.073Z,12.10
2023-05-06T09:44:58.588Z,20.80
2023-05-06T09:47:29.373Z,19.20
2023-05-06T09:49:57.944Z,19.00
2023-05-06T09:52:28.071Z,13.00
2023-05-06T09:54:55.257Z,11.20
2023-05-06T09:57:22.192Z,9.60
2023-05-06T09:59:51.589Z,7.80
2023-05-06T10:02:19.276Z,13.50
2023-05-06T10:04:48.988Z,17.80
2023-05-06T10:07:22.012Z,10.50
2023-05-06T10:09:50.909Z,11.90
2023-05-06T10:12:20.890Z,12.80
2023-05-06T10:14:47.839Z,11.20
2023-05-06T10:17:17.647Z,10.00
2023-05-06T10:19:49.908Z,7.60
2023-05-06T10:22:46.618Z,6.80
2023-05-06T10:25:16.473Z,4.60
2023-05-06T10:27:45.270Z,6.70
2023-05-06T10:30:16.283Z,7.70
2023-05-06T10:32:45.153Z,5.60
2023-05-06T10:35:22.163Z,7.80
2023-05-06T10:37:51.128Z,6.90
2023-05-06T10:40:18.540Z,4.10
2023-05-06T10:42:45.268Z,6.30
2023-05-06T10:45:14.671Z,4.90
2023-05-06T10:47:57.024Z,7.20
2023-05-06T10:50:25.265Z,13.50
2023-05-06T10:52:56.816Z,8.60
2023-05-06T10:55:31.126Z,6.00
2023-05-06T10:58:14.001Z,8.60
2023-05-06T11:00:41.125Z,8.70
2023-05-06T11:03:11.202Z,4.30
2023-05-06T11:05:54.380Z,5.40
2023-05-06T11:08:23.237Z,5.00
2023-05-06T11:10:50.582Z,6.00
2023-05-06T11:13:22.295Z,4.70
2023-05-06T11:15:51.370Z,5.20
2023-05-06T11:18:24.462Z,4.90
2023-05-06T11:21:19.862Z,5.80
2023-05-06T11:23:48.732Z,8.10
2023-05-06T11:26:15.882Z,11.50
2023-05-06T11:28:44.187Z,10.70
2023-05-06T11:31:12.578Z,6.80
2023-05-06T11:33:46.365Z,9.30
2023-05-06T11:36:18.123Z,10.90
2023-05-06T11:38:51.965Z,6.40
2023-05-06T11:41:19.111Z,8.60
2023-05-06T11:43:50.466Z,8.00
2023-05-06T11:46:21.693Z,6.80
2023-05-06T11:48:49.853Z,8.30
2023-05-06T11:51:21.879Z,8.00
2023-05-06T11:53:48.862Z,8.80
2023-05-06T11:56:15.723Z,7.70
2023-05-06T11:58:43.338Z,8.80
2023-05-06T12:01:09.895Z,10.50
2023-05-06T12:03:36.784Z,5.50
2023-05-06T12:06:04.147Z,7.80
2023-05-06T12:08:35.726Z,6.50
2023-05-06T12:11:06.657Z,6.60
2023-05-06T12:13:36.073Z,9.10
2023-05-06T12:16:05.001Z,21.90
2023-05-06T12:18:32.085Z,13.80
2023-05-06T12:21:02.570Z,14.60
2023-05-06T12:23:29.426Z,12.40
2023-05-06T12:26:04.399Z,11.90
2023-05-06T12:28:32.620Z,10.00
2023-05-06T12:31:00.390Z,14.50
2023-05-06T12:33:27.035Z,6.50
2023-05-06T12:36:05.577Z,9.70
2023-05-06T12:38:32.562Z,10.80
2023-05-06T12:40:59.126Z,9.20
2023-05-06T12:43:30.865Z,13.40
2023-05-06T12:46:08.305Z,18.40
2023-05-06T12:48:35.103Z,10.60
2023-05-06T12:51:17.855Z,9.30
2023-05-06T12:53:44.497Z,7.00
2023-05-06T12:56:11.070Z,7.70
2023-05-06T12:58:39.045Z,11.70
2023-05-06T13:01:09.374Z,9.10
2023-05-06T13:03:38.600Z,8.90
2023-05-06T13:06:05.628Z,10.30
2023-05-06T13:08:33.333Z,9.10
2023-05-06T13:11:01.775Z,10.20
2023-05-06T13:13:28.555Z,12.50
2023-05-06T13:15:55.917Z,13.00
2023-05-06T13:18:23.114Z,15.30
2023-05-06T13:20:51.297Z,12.10
2023-05-06T13:23:21.894Z,9.10
2023-05-06T13:26:02.939Z,14.50
2023-05-06T13:28:32.219Z,12.50
2023-05-06T13:30:59.010Z,11.80
2023-05-06T13:33:25.659Z,11.40
2023-05-06T13:35:52.574Z,7.40
2023-05-06T13:38:19.141Z,8.60
2023-05-06T13:40:51.036Z,8.40
2023-05-06T13:43:18.898Z,8.70
2023-05-06T13:45:45.618Z,8.30
2023-05-06T13:48:15.167Z,10.50
2023-05-06T13:50:43.201Z,10.70
2023-05-06T13:53:11.037Z,14.20
2023-05-06T13:55:37.793Z,9.20
2023-05-06T13:58:06.211Z,7.80
2023-05-06T14:00:34.155Z,7.90
2023-05-06T14:03:01.170Z,9.20
2023-05-06T14:05:29.908Z,7.60
2023-05-06T14:07:56.593Z,8.70
2023-05-06T14:10:23.495Z,11.00
2023-05-06T14:12:50.666Z,7.60
2023-05-06T14:15:17.340Z,7.10
2023-05-06T14:17:44.337Z,8.10
2023-05-06T14:20:11.265Z,8.30
2023-05-06T14:22:40.793Z,8.40
2023-05-06T14:25:08.707Z,7.40
2023-05-06T14:27:36.488Z,16.30
2023-05-06T14:30:08.865Z,30.70
2023-05-06T14:32:36.803Z,30.40
2023-05-06T14:35:03.952Z,33.30
2023-05-06T14:37:30.486Z,28.80
2023-05-06T14:39:57.306Z,33.00
2023-05-06T14:42:27.654Z,29.60
2023-05-06T14:44:54.564Z,24.60
2023-05-06T14:47:21.579Z,20.40
2023-05-06T14:49:48.276Z,19.10
2023-05-06T14:52:15.013Z,24.90
2023-05-06T14:54:42.353Z,20.00
2023-05-06T14:57:10.337Z,14.90
2023-05-06T14:59:37.831Z,10.60
2023-05-06T15:02:07.574Z,13.10
2023-05-06T15:04:34.653Z,15.90
2023-05-06T15:07:02.174Z,11.50
2023-05-06T15:09:29.131Z,9.10
2023-05-06T15:11:57.119Z,11.80
2023-05-06T15:14:28.220Z,10.30
2023-05-06T15:17:02.370Z,12.70
2023-05-06T15:19:29.456Z,12.00
2023-05-06T15:21:56.595Z,12.50
2023-05-06T15:24:25.814Z,13.00
2023-05-06T15:26:54.778Z,8.80
2023-05-06T15:29:21.743Z,11.10
2023-05-06T15:31:49.471Z,12.90
2023-05-06T15:34:16.354Z,8.60
2023-05-06T15:36:43.924Z,10.60
2023-05-06T15:39:13.557Z,11.10
2023-05-06T15:41:40.678Z,10.30
2023-05-06T15:44:09.964Z,6.80
2023-05-06T15:46:38.017Z,8.70
2023-05-06T15:51:35.123Z,11.40
2023-05-06T15:54:04.614Z,11.50
2023-05-06T15:56:39.303Z,11.50
2023-05-06T15:59:08.532Z,12.80
2023-05-06T16:02:18.867Z,9.60
2023-05-06T16:04:23.706Z,9.10
2023-05-06T16:06:50.540Z,12.10
2023-05-06T16:09:17.366Z,10.40
2023-05-06T16:11:44.581Z,9.90
2023-05-06T16:14:11.311Z,10.50
2023-05-06T16:16:38.212Z,11.30
2023-05-06T16:19:05.361Z,16.30
2023-05-06T16:21:31.968Z,12.10
2023-05-06T16:24:00.401Z,15.20
2023-05-06T16:26:27.383Z,14.20
2023-05-06T16:28:54.119Z,14.30
2023-05-06T16:31:20.916Z,16.30
2023-05-06T16:33:47.661Z,15.10
2023-05-06T16:36:14.540Z,15.20
2023-05-06T16:38:41.389Z,19.70
2023-05-06T16:41:08.194Z,14.90
2023-05-06T16:43:34.808Z,15.00
2023-05-06T16:46:01.483Z,13.10
2023-05-06T16:48:28.596Z,14.80
2023-05-06T16:50:55.364Z,12.80
2023-05-06T16:53:22.031Z,13.60
2023-05-06T16:55:49.508Z,13.60
2023-05-06T16:58:16.398Z,13.00
2023-05-06T17:00:43.305Z,13.10
2023-05-06T17:03:10.966Z,11.30
2023-05-06T17:05:38.436Z,12.50
2023-05-06T17:08:05.305Z,11.20
2023-05-06T17:10:32.304Z,11.80
2023-05-06T17:12:59.308Z,11.90
2023-05-06T17:15:26.451Z,9.70
2023-05-06T17:17:53.302Z,9.60
2023-05-06T17:20:20.507Z,9.80
2023-05-06T17:22:47.715Z,9.30
2023-05-06T17:25:15.072Z,13.50
2023-05-06T17:27:41.658Z,10.90
2023-05-06T17:30:11.774Z,12.30
2023-05-06T17:32:39.190Z,8.70
2023-05-06T17:35:06.777Z,9.30
2023-05-06T17:37:33.808Z,9.20
2023-05-06T17:40:00.623Z,32.80
2023-05-06T17:42:27.224Z,20.70
2023-05-06T17:44:54.218Z,19.20
2023-05-06T17:47:22.398Z,14.20
2023-05-06T17:49:53.075Z,30.20
2023-05-06T17:52:20.090Z,32.40
2023-05-06T17:55:05.671Z,46.90
2023-05-06T17:57:36.947Z,30.00
2023-05-06T18:00:04.147Z,19.80
2023-05-06T18:02:38.702Z,20.50
2023-05-06T18:05:06.191Z,12.40
2023-05-06T18:07:36.853Z,13.20
2023-05-06T18:10:03.747Z,27.00
2023-05-06T18:15:22.080Z,25.70
2023-05-06T18:17:49.527Z,90.10
2023-05-06T18:20:16.507Z,147.90
2023-05-06T18:22:43.325Z,53.00
2023-05-06T18:25:10.471Z,66.00
2023-05-06T18:27:40.090Z,55.90
2023-05-06T18:30:07.640Z,45.00
2023-05-06T18:32:35.802Z,69.10
2023-05-06T18:35:02.353Z,45.80
2023-05-06T18:37:29.093Z,55.50
2023-05-06T18:39:57.655Z,80.90
2023-05-06T18:42:24.374Z,33.00
2023-05-06T18:44:51.088Z,74.20
2023-05-06T18:47:18.669Z,61.40
2023-05-06T18:49:45.653Z,26.60
2023-05-06T18:52:14.602Z,16.70
2023-05-06T18:54:41.396Z,15.70
2023-05-06T18:57:08.465Z,17.70
2023-05-06T18:59:35.926Z,13.10
2023-05-06T19:02:03.809Z,44.90
2023-05-06T19:04:31.532Z,24.00
2023-05-06T19:06:58.530Z,163.10
2023-05-06T19:09:25.169Z,185.60
2023-05-06T19:11:51.794Z,160.40
2023-05-06T19:14:18.799Z,81.80
2023-05-06T19:16:46.041Z,110.00
2023-05-06T19:19:12.625Z,41.70
2023-05-06T19:21:39.378Z,77.10
2023-05-06T19:24:06.229Z,187.90
2023-05-06T19:26:32.906Z,155.90
2023-05-06T19:28:59.848Z,60.60
2023-05-06T19:31:26.592Z,90.50
2023-05-06T19:33:53.191Z,59.10
2023-05-06T19:36:19.930Z,48.00
2023-05-06T19:38:46.645Z,54.00
2023-05-06T19:41:13.411Z,147.70
2023-05-06T19:43:42.097Z,87.50
2023-05-06T19:46:10.119Z,61.50
2023-05-06T19:48:38.386Z,34.00
2023-05-06T19:51:06.140Z,65.20
2023-05-06T19:53:33.671Z,139.70
2023-05-06T19:56:11.425Z,190.50
2023-05-06T19:58:38.612Z,72.80
2023-05-06T20:01:05.472Z,57.20
2023-05-06T20:03:32.674Z,135.70
2023-05-06T20:05:59.584Z,80.10
2023-05-06T20:08:26.325Z,155.70
2023-05-06T20:10:53.224Z,82.10
2023-05-06T20:13:20.303Z,103.40
2023-05-06T20:15:48.335Z,72.30
2023-05-06T20:18:15.014Z,293.90
2023-05-06T20:20:42.728Z,70.20
2023-05-06T20:23:09.269Z,26.10
2023-05-06T20:25:36.965Z,15.50
2023-05-06T20:28:06.470Z,24.90
2023-05-06T20:30:34.259Z,28.80
2023-05-06T20:33:01.686Z,14.60
2023-05-06T20:35:28.503Z,16.30
2023-05-06T20:37:55.148Z,12.70
2023-05-06T20:40:21.873Z,9.20
2023-05-06T20:42:48.626Z,9.00
2023-05-06T20:45:16.342Z,9.00
2023-05-06T20:47:46.272Z,8.20
2023-05-06T20:50:16.617Z,9.10
2023-05-06T20:52:45.353Z,8.70
2023-05-06T20:55:13.996Z,8.10
2023-05-06T20:57:44.385Z,9.20
2023-05-06T21:00:11.556Z,9.90
2023-05-06T21:02:41.486Z,10.70
2023-05-06T21:05:09.663Z,11.20
2023-05-06T21:07:36.376Z,7.00
2023-05-06T21:10:05.591Z,7.50
2023-05-06T21:12:32.818Z,10.00
2023-05-06T21:15:00.239Z,11.60
2023-05-06T21:17:26.978Z,18.40
2023-05-06T21:19:53.648Z,11.40
2023-05-06T21:22:22.452Z,10.00
2023-05-06T21:24:50.250Z,9.50
2023-05-06T21:27:16.855Z,8.50
2023-05-06T21:29:43.292Z,9.60
2023-05-06T21:32:10.041Z,7.90
2023-05-06T21:34:37.067Z,8.00
2023-05-06T21:37:03.591Z,7.30
2023-05-06T21:39:30.325Z,8.70
2023-05-06T21:41:57.633Z,9.10
2023-05-06T21:44:24.097Z,8.60
2023-05-06T21:46:50.816Z,8.40
2023-05-06T21:49:18.775Z,8.90
2023-05-06T21:51:45.672Z,8.80
2023-05-06T21:54:12.949Z,11.20
2023-05-06T21:56:39.878Z,8.20
2023-05-06T21:59:07.377Z,10.00
2023-05-06T22:01:35.716Z,7.70
2023-05-06T22:04:04.060Z,8.30
2023-05-06T22:06:30.821Z,8.60
2023-05-06T22:08:57.604Z,8.10
2023-05-06T22:11:24.430Z,7.60
2023-05-06T22:13:51.214Z,7.40
2023-05-06T22:16:18.001Z,10.10
2023-05-06T22:18:44.756Z,8.80
2023-05-06T22:21:11.294Z,8.30
2023-05-06T22:23:39.959Z,7.90
2023-05-06T22:26:06.651Z,8.40
2023-05-06T22:28:33.616Z,9.20
2023-05-06T22:31:00.333Z,9.00
2023-05-06T22:33:26.927Z,7.40
2023-05-06T22:35:54.969Z,7.70
2023-05-06T22:38:21.805Z,8.50
2023-05-06T22:40:48.681Z,8.30
2023-05-06T22:43:15.388Z,9.90
2023-05-06T22:45:42.760Z,8.00
2023-05-06T22:48:10.225Z,7.40
2023-05-06T22:50:37.439Z,8.00
2023-05-06T22:53:13.509Z,8.50
2023-05-06T22:55:41.823Z,9.00
2023-05-06T22:58:08.574Z,7.60
2023-05-06T23:00:35.224Z,7.90
2023-05-06T23:03:02.300Z,7.90
2023-05-06T23:05:29.302Z,8.00
2023-05-06T23:07:56.356Z,6.60
2023-05-06T23:10:23.515Z,9.40
2023-05-06T23:12:50.309Z,7.50
2023-05-06T23:15:16.971Z,8.00
2023-05-06T23:17:43.577Z,8.10
2023-05-06T23:20:12.209Z,7.70
2023-05-06T23:22:38.893Z,7.60
2023-05-06T23:25:05.974Z,9.00
2023-05-06T23:27:32.661Z,7.30
2023-05-06T23:29:59.302Z,4.90
2023-05-06T23:32:26.686Z,7.70
2023-05-06T23:34:53.360Z,8.00
2023-05-06T23:37:19.896Z,6.40
2023-05-06T23:39:47.095Z,6.20
2023-05-06T23:42:13.796Z,7.10
2023-05-06T23:44:40.264Z,7.30
2023-05-06T23:47:07.094Z,7.30
2023-05-06T23:49:35.669Z,10.00
2023-05-06T23:52:02.674Z,6.00
2023-05-06T23:54:29.296Z,8.30
2023-05-06T23:56:55.938Z,7.30
2023-05-06T23:59:22.496Z,7.60
